createdAt,value
2023-05-19T00:01:19.887Z,74.52
2023-05-19T00:03:52.178Z,75.48
2023-05-19T00:06:23.651Z,76.25
2023-05-19T00:08:56.240Z,77.79
2023-05-19T00:11:23.456Z,76.55
2023-05-19T00:13:50.809Z,71.77
2023-05-19T00:16:18.024Z,75.28
2023-05-19T00:18:45.010Z,74.02
2023-05-19T00:21:11.770Z,73.18
2023-05-19T00:23:38.420Z,75.46
2023-05-19T00:26:05.220Z,72.67
2023-05-19T00:28:31.966Z,73.19
2023-05-19T00:30:58.907Z,73.90
2023-05-19T00:33:25.958Z,71.70
2023-05-19T00:35:53.057Z,68.49
2023-05-19T00:38:19.912Z,72.79
2023-05-19T00:40:47.001Z,76.30
2023-05-19T00:43:13.837Z,73.92
2023-05-19T00:45:40.887Z,75.96
2023-05-19T00:48:07.906Z,75.27
2023-05-19T00:50:35.067Z,76.35
2023-05-19T00:53:02.147Z,75.47
2023-05-19T00:55:31.117Z,77.73
2023-05-19T00:57:58.416Z,72.76
2023-05-19T01:00:25.221Z,73.72
2023-05-19T01:02:53.872Z,74.77
2023-05-19T01:05:20.643Z,77.47
2023-05-19T01:07:51.475Z,78.06
2023-05-19T01:10:18.628Z,75.02
2023-05-19T01:12:46.115Z,75.61
2023-05-19T01:15:13.476Z,79.52
2023-05-19T01:17:44.435Z,77.09
2023-05-19T01:20:11.420Z,77.32
2023-05-19T01:22:42.669Z,75.16
2023-05-19T01:25:29.079Z,77.27
2023-05-19T01:28:04.279Z,73.96
2023-05-19T01:30:36.891Z,75.11
2023-05-19T01:33:06.744Z,79.48
2023-05-19T01:35:35.791Z,78.60
2023-05-19T01:38:03.359Z,77.04
2023-05-19T01:40:32.056Z,78.46
2023-05-19T01:43:01.139Z,78.67
2023-05-19T01:45:29.202Z,78.26
2023-05-19T01:47:57.443Z,77.46
2023-05-19T01:50:24.941Z,77.85
2023-05-19T01:52:51.892Z,75.80
2023-05-19T01:55:18.929Z,78.13
2023-05-19T01:57:45.669Z,76.83
2023-05-19T02:00:19.361Z,74.63
2023-05-19T02:02:51.259Z,73.62
2023-05-19T02:05:37.122Z,70.87
2023-05-19T02:08:10.008Z,76.87
2023-05-19T02:10:40.546Z,78.26
2023-05-19T02:13:10.962Z,79.09
2023-05-19T02:15:39.869Z,78.89
2023-05-19T02:18:08.737Z,78.07
2023-05-19T02:20:35.599Z,77.56
2023-05-19T02:23:02.429Z,77.16
2023-05-19T02:25:29.605Z,75.97
2023-05-19T02:27:57.361Z,79.86
2023-05-19T02:30:24.685Z,78.36
2023-05-19T02:32:53.736Z,78.77
2023-05-19T02:35:20.891Z,78.57
2023-05-19T02:37:47.676Z,79.04
2023-05-19T02:40:15.033Z,80.26
2023-05-19T02:42:41.882Z,79.39
2023-05-19T02:45:09.537Z,79.14
2023-05-19T02:47:37.819Z,77.24
2023-05-19T02:50:05.778Z,79.64
2023-05-19T02:52:32.834Z,77.57
2023-05-19T02:55:00.175Z,78.54
2023-05-19T02:57:26.917Z,77.64
2023-05-19T02:59:53.659Z,75.94
2023-05-19T03:02:22.606Z,77.95
2023-05-19T03:04:50.320Z,76.69
2023-05-19T03:07:17.255Z,77.89
2023-05-19T03:09:43.998Z,77.25
2023-05-19T03:12:10.738Z,77.75
2023-05-19T03:14:38.090Z,79.97
2023-05-19T03:17:08.467Z,81.32
2023-05-19T03:19:36.310Z,79.15
2023-05-19T03:22:03.326Z,80.27
2023-05-19T03:24:30.280Z,79.50
2023-05-19T03:26:57.124Z,78.75
2023-05-19T03:29:24.060Z,78.36
2023-05-19T03:31:51.685Z,78.63
2023-05-19T03:34:18.565Z,77.69
2023-05-19T03:36:45.609Z,76.08
2023-05-19T03:39:15.635Z,79.49
2023-05-19T03:41:42.706Z,77.54
2023-05-19T03:44:09.522Z,77.74
2023-05-19T03:46:37.285Z,77.58
2023-05-19T03:49:23.175Z,77.13
2023-05-19T03:52:25.345Z,76.30
2023-05-19T03:55:07.448Z,78.44
2023-05-19T03:57:34.207Z,77.03
2023-05-19T04:00:00.889Z,80.39
2023-05-19T04:02:27.831Z,80.53
2023-05-19T04:04:55.806Z,77.86
2023-05-19T04:07:23.193Z,77.60
2023-05-19T04:09:50.453Z,79.31
2023-05-19T04:12:17.387Z,80.08
2023-05-19T04:14:45.464Z,76.59
2023-05-19T04:17:12.409Z,79.13
2023-05-19T04:19:39.857Z,79.41
2023-05-19T04:22:06.723Z,77.24
2023-05-19T04:24:33.389Z,76.39
2023-05-19T04:27:02.112Z,77.59
2023-05-19T04:29:29.072Z,79.42
2023-05-19T04:31:57.038Z,80.29
2023-05-19T04:34:24.418Z,80.01
2023-05-19T04:36:53.241Z,77.85
2023-05-19T04:39:21.180Z,78.03
2023-05-19T04:41:48.095Z,77.58
2023-05-19T04:44:17.603Z,77.24
2023-05-19T04:46:46.837Z,76.83
2023-05-19T04:49:14.152Z,76.52
2023-05-19T04:51:42.123Z,75.24
2023-05-19T04:54:09.581Z,78.63
2023-05-19T04:56:36.418Z,77.54
2023-05-19T04:59:04.389Z,77.45
2023-05-19T05:01:33.416Z,75.85
2023-05-19T05:04:02.242Z,76.03
2023-05-19T05:06:31.154Z,78.30
2023-05-19T05:08:58.102Z,76.72
2023-05-19T05:11:25.865Z,75.48
2023-05-19T05:13:53.771Z,77.20
2023-05-19T05:16:20.824Z,75.06
2023-05-19T05:18:48.183Z,76.86
2023-05-19T05:21:15.797Z,76.18
2023-05-19T05:23:43.025Z,76.48
2023-05-19T05:26:16.446Z,76.66
2023-05-19T05:28:43.287Z,77.09
2023-05-19T05:31:11.253Z,75.76
2023-05-19T05:33:39.046Z,76.29
2023-05-19T05:36:06.166Z,75.57
2023-05-19T05:38:33.828Z,74.84
2023-05-19T05:41:02.308Z,73.31
2023-05-19T05:43:29.559Z,73.48
2023-05-19T05:46:01.937Z,74.27
2023-05-19T05:48:30.014Z,73.64
2023-05-19T05:50:58.901Z,73.90
2023-05-19T05:53:29.832Z,74.59
2023-05-19T05:55:58.025Z,73.92
2023-05-19T05:58:28.538Z,74.68
2023-05-19T06:00:57.436Z,72.73
2023-05-19T06:03:26.608Z,73.16
2023-05-19T06:05:53.910Z,73.95
2023-05-19T06:08:20.824Z,72.46
2023-05-19T06:10:47.608Z,72.48
2023-05-19T06:13:18.400Z,72.50
2023-05-19T06:15:48.608Z,71.93
2023-05-19T06:18:20.687Z,70.53
2023-05-19T06:20:48.349Z,72.16
2023-05-19T06:23:15.294Z,71.60
2023-05-19T06:25:42.248Z,71.42
2023-05-19T06:28:10.545Z,69.55
2023-05-19T06:30:37.665Z,69.63
2023-05-19T06:33:16.901Z,70.26
2023-05-19T06:35:43.845Z,69.00
2023-05-19T06:38:10.717Z,68.17
2023-05-19T06:40:37.733Z,67.60
2023-05-19T06:43:04.577Z,66.42
2023-05-19T06:45:41.753Z,66.40
2023-05-19T06:48:08.871Z,64.77
2023-05-19T06:50:36.681Z,63.70
2023-05-19T06:53:03.515Z,63.81
2023-05-19T06:55:31.634Z,63.11
2023-05-19T06:57:58.361Z,61.63
2023-05-19T07:00:25.478Z,60.55
2023-05-19T07:02:52.807Z,60.74
2023-05-19T07:05:20.585Z,59.40
2023-05-19T07:07:51.016Z,59.16
2023-05-19T07:10:21.640Z,58.59
2023-05-19T07:12:48.486Z,56.77
2023-05-19T07:15:15.942Z,55.80
2023-05-19T07:17:43.957Z,55.97
2023-05-19T07:20:10.979Z,55.79
2023-05-19T07:22:39.344Z,54.54
2023-05-19T07:25:07.311Z,54.82
2023-05-19T07:27:34.253Z,53.58
2023-05-19T07:30:01.092Z,52.81
2023-05-19T07:32:27.881Z,52.24
2023-05-19T07:34:54.674Z,52.28
2023-05-19T07:37:21.520Z,50.83
2023-05-19T07:39:48.359Z,49.71
2023-05-19T07:42:15.106Z,50.06
2023-05-19T07:44:41.943Z,50.08
2023-05-19T07:47:08.797Z,50.63
2023-05-19T07:49:35.521Z,50.61
2023-05-19T07:52:02.463Z,50.52
2023-05-19T07:54:29.416Z,47.99
2023-05-19T07:56:56.356Z,49.20
2023-05-19T07:59:23.929Z,48.24
2023-05-19T08:01:50.684Z,48.64
2023-05-19T08:04:17.379Z,47.07
2023-05-19T08:06:44.563Z,46.57
2023-05-19T08:09:11.597Z,46.99
2023-05-19T08:11:38.452Z,47.49
2023-05-19T08:14:05.272Z,45.83
2023-05-19T08:16:31.984Z,46.85
2023-05-19T08:19:02.080Z,46.03
2023-05-19T08:21:28.949Z,46.63
2023-05-19T08:23:56.639Z,45.72
2023-05-19T08:26:23.384Z,46.28
2023-05-19T08:28:50.120Z,46.11
2023-05-19T08:31:17.849Z,44.94
2023-05-19T08:33:45.345Z,44.12
2023-05-19T08:36:11.974Z,45.42
2023-05-19T08:38:38.645Z,44.79
2023-05-19T08:41:05.467Z,44.37
2023-05-19T08:43:32.223Z,43.55
2023-05-19T08:46:00.277Z,42.87
2023-05-19T08:48:33.187Z,43.35
2023-05-19T08:51:18.531Z,42.73
2023-05-19T08:53:49.626Z,43.66
2023-05-19T08:56:19.530Z,44.07
2023-05-19T08:58:48.478Z,45.07
2023-05-19T09:01:18.203Z,45.70
2023-05-19T09:03:45.831Z,44.90
2023-05-19T09:06:12.899Z,45.54
2023-05-19T09:08:40.536Z,46.05
2023-05-19T09:11:08.273Z,44.80
2023-05-19T09:13:35.011Z,43.87
2023-05-19T09:16:02.715Z,43.36
2023-05-19T09:18:29.626Z,43.54
2023-05-19T09:21:01.839Z,43.49
2023-05-19T09:23:30.119Z,43.63
2023-05-19T09:25:57.057Z,44.76
2023-05-19T09:28:25.548Z,45.97
2023-05-19T09:31:02.210Z,46.04
2023-05-19T09:33:29.260Z,47.85
2023-05-19T09:35:56.568Z,47.58
2023-05-19T09:38:24.045Z,47.50
2023-05-19T09:40:51.716Z,47.06
2023-05-19T09:43:18.771Z,46.26
2023-05-19T09:45:45.839Z,47.17
2023-05-19T09:48:14.141Z,45.57
2023-05-19T09:50:42.170Z,45.72
2023-05-19T09:53:12.182Z,45.22
2023-05-19T09:55:40.497Z,44.95
2023-05-19T09:58:07.298Z,45.00
2023-05-19T10:00:34.488Z,45.60
2023-05-19T10:03:04.281Z,44.79
2023-05-19T10:05:32.746Z,44.93
2023-05-19T10:08:00.133Z,43.99
2023-05-19T10:10:26.893Z,43.32
2023-05-19T10:12:54.088Z,45.09
2023-05-19T10:15:23.145Z,44.47
2023-05-19T10:17:50.995Z,43.55
2023-05-19T10:20:18.358Z,43.98
2023-05-19T10:22:45.772Z,43.98
2023-05-19T10:25:17.946Z,44.07
2023-05-19T10:27:49.577Z,43.03
2023-05-19T10:30:26.696Z,43.55
2023-05-19T10:32:56.920Z,43.88
2023-05-19T10:35:31.940Z,43.57
2023-05-19T10:38:14.614Z,43.77
2023-05-19T10:40:50.383Z,43.82
2023-05-19T10:43:35.875Z,44.10
2023-05-19T10:46:03.932Z,43.28
2023-05-19T10:48:33.036Z,44.08
2023-05-19T10:50:59.771Z,44.50
2023-05-19T10:53:31.029Z,43.99
2023-05-19T10:56:02.178Z,44.02
2023-05-19T10:58:44.157Z,43.78
2023-05-19T11:01:14.053Z,42.75
2023-05-19T11:03:45.442Z,43.55
2023-05-19T11:06:18.353Z,43.42
2023-05-19T11:08:45.152Z,43.77
2023-05-19T11:11:18.942Z,44.28
2023-05-19T11:13:52.194Z,45.27
2023-05-19T11:16:20.448Z,44.24
2023-05-19T11:18:48.256Z,44.47
2023-05-19T11:21:15.808Z,42.99
2023-05-19T11:23:43.551Z,44.14
2023-05-19T11:26:10.353Z,44.86
2023-05-19T11:28:37.298Z,46.14
2023-05-19T11:31:07.488Z,47.02
2023-05-19T11:33:34.359Z,46.13
2023-05-19T11:36:02.269Z,46.79
2023-05-19T11:38:29.658Z,46.24
2023-05-19T11:40:56.540Z,46.56
2023-05-19T11:43:24.287Z,46.53
2023-05-19T11:45:51.293Z,45.73
2023-05-19T11:48:20.286Z,45.81
2023-05-19T11:50:47.015Z,45.34
2023-05-19T11:53:14.582Z,45.74
2023-05-19T11:55:43.055Z,45.47
2023-05-19T11:58:09.801Z,46.14
2023-05-19T12:00:38.718Z,46.02
2023-05-19T12:03:05.980Z,46.10
2023-05-19T12:05:39.108Z,45.70
2023-05-19T12:08:08.312Z,45.36
2023-05-19T12:10:35.339Z,45.41
2023-05-19T12:13:02.875Z,46.00
2023-05-19T12:15:31.069Z,45.99
2023-05-19T12:17:59.881Z,46.72
2023-05-19T12:20:28.264Z,46.40
2023-05-19T12:22:55.364Z,46.27
2023-05-19T12:25:22.427Z,46.19
2023-05-19T12:27:49.578Z,46.02
2023-05-19T12:30:16.614Z,46.65
2023-05-19T12:32:43.779Z,46.50
2023-05-19T12:35:11.214Z,46.27
2023-05-19T12:37:40.969Z,45.91
2023-05-19T12:40:10.436Z,45.91
2023-05-19T12:42:37.279Z,46.29
2023-05-19T12:45:04.381Z,46.33
2023-05-19T12:47:32.942Z,46.45
2023-05-19T12:49:59.842Z,45.99
2023-05-19T12:52:28.552Z,46.14
2023-05-19T12:55:06.477Z,46.56
2023-05-19T12:57:34.608Z,46.58
2023-05-19T13:00:06.370Z,46.49
2023-05-19T13:02:34.091Z,46.39
2023-05-19T13:05:00.949Z,46.23
2023-05-19T13:07:27.796Z,46.36
2023-05-19T13:09:54.476Z,46.39
2023-05-19T13:12:21.093Z,46.71
2023-05-19T13:14:47.720Z,47.36
2023-05-19T13:17:14.395Z,47.60
2023-05-19T13:19:41.665Z,46.91
2023-05-19T13:22:08.455Z,46.23
2023-05-19T13:24:35.441Z,47.42
2023-05-19T13:27:02.862Z,46.66
2023-05-19T13:29:29.498Z,47.74
2023-05-19T13:31:56.181Z,48.99
2023-05-19T13:34:22.876Z,49.05
2023-05-19T13:36:49.749Z,50.08
2023-05-19T13:39:17.899Z,49.93
2023-05-19T13:41:44.637Z,50.36
2023-05-19T13:44:11.309Z,49.92
2023-05-19T13:49:10.791Z,47.47
2023-05-19T13:51:39.166Z,45.81
2023-05-19T13:54:05.915Z,48.30
2023-05-19T13:56:32.853Z,49.90
2023-05-19T13:58:59.593Z,50.11
2023-05-19T14:01:26.324Z,48.84
2023-05-19T14:03:53.330Z,48.98
2023-05-19T14:06:20.227Z,48.86
2023-05-19T14:08:47.067Z,49.26
2023-05-19T14:11:19.135Z,48.98
2023-05-19T14:13:47.802Z,48.86
2023-05-19T14:16:14.683Z,48.11
2023-05-19T14:18:41.853Z,47.61
2023-05-19T14:21:08.755Z,48.03
2023-05-19T14:23:35.589Z,46.76
2023-05-19T14:26:02.450Z,46.20
2023-05-19T14:28:29.480Z,47.60
2023-05-19T14:30:56.322Z,48.44
2023-05-19T14:33:23.265Z,47.79
2023-05-19T14:35:50.105Z,47.87
2023-05-19T14:38:16.851Z,47.64
2023-05-19T14:40:44.103Z,47.47
2023-05-19T14:43:11.290Z,46.06
2023-05-19T14:45:38.400Z,44.78
2023-05-19T14:48:05.439Z,44.52
2023-05-19T14:50:32.485Z,44.85
2023-05-19T14:52:59.645Z,44.31
2023-05-19T14:55:26.380Z,43.98
2023-05-19T14:57:53.231Z,43.64
2023-05-19T15:00:20.376Z,44.00
2023-05-19T15:02:48.883Z,44.44
2023-05-19T15:05:15.902Z,44.75
2023-05-19T15:07:42.758Z,44.24
2023-05-19T15:10:09.594Z,44.40
2023-05-19T15:12:36.645Z,44.48
2023-05-19T15:15:03.579Z,44.53
2023-05-19T15:17:30.869Z,44.83
2023-05-19T15:19:57.676Z,44.88
2023-05-19T15:22:24.513Z,44.66
2023-05-19T15:24:51.256Z,44.58
2023-05-19T15:27:17.997Z,44.94
2023-05-19T15:29:44.736Z,45.05
2023-05-19T15:32:11.689Z,46.24
2023-05-19T15:34:38.629Z,46.32
2023-05-19T15:37:05.469Z,46.89
2023-05-19T15:39:33.275Z,46.97
2023-05-19T15:42:00.174Z,48.02
2023-05-19T15:44:28.941Z,47.49
2023-05-19T15:46:56.055Z,46.96
2023-05-19T15:49:24.518Z,46.61
2023-05-19T15:51:51.335Z,46.38
2023-05-19T15:54:18.285Z,46.31
2023-05-19T15:56:45.117Z,46.68
2023-05-19T15:59:11.865Z,46.59
2023-05-19T16:01:38.655Z,46.27
2023-05-19T16:04:06.180Z,46.07
2023-05-19T16:06:33.121Z,46.16
2023-05-19T16:08:59.952Z,46.43
2023-05-19T16:11:26.895Z,46.69
2023-05-19T16:13:54.064Z,46.94
2023-05-19T16:16:21.341Z,46.88
2023-05-19T16:18:48.304Z,46.98
2023-05-19T16:21:15.304Z,47.03
2023-05-19T16:23:42.133Z,47.05
2023-05-19T16:26:08.882Z,47.34
2023-05-19T16:28:35.829Z,47.57
2023-05-19T16:31:02.767Z,48.47
2023-05-19T16:33:30.170Z,49.18
2023-05-19T16:35:57.782Z,48.78
2023-05-19T16:38:24.619Z,49.19
2023-05-19T16:40:51.581Z,49.14
2023-05-19T16:43:18.307Z,49.61
2023-05-19T16:45:45.166Z,51.13
2023-05-19T16:48:12.135Z,50.80
2023-05-19T16:50:39.377Z,51.48
2023-05-19T16:53:06.391Z,50.73
2023-05-19T16:55:33.233Z,51.20
2023-05-19T16:57:59.970Z,51.51
2023-05-19T17:00:28.965Z,51.88
2023-05-19T17:02:55.890Z,51.98
2023-05-19T17:05:22.855Z,51.55
2023-05-19T17:07:49.691Z,53.59
2023-05-19T17:10:17.048Z,53.32
2023-05-19T17:12:43.892Z,53.32
2023-05-19T17:15:11.045Z,53.18
2023-05-19T17:17:38.056Z,51.14
2023-05-19T17:20:05.473Z,52.39
2023-05-19T17:22:32.278Z,52.22
2023-05-19T17:24:59.025Z,54.17
2023-05-19T17:27:25.770Z,53.92
2023-05-19T17:29:52.773Z,53.53
2023-05-19T17:32:25.040Z,52.58
2023-05-19T17:34:52.123Z,52.86
2023-05-19T17:37:22.956Z,52.39
2023-05-19T17:39:52.612Z,51.44
2023-05-19T17:42:19.815Z,53.80
2023-05-19T17:44:46.882Z,54.55
2023-05-19T17:47:13.715Z,55.93
2023-05-19T17:49:40.956Z,55.41
2023-05-19T17:52:08.117Z,56.65
2023-05-19T17:54:35.270Z,57.40
2023-05-19T17:57:04.513Z,57.12
2023-05-19T17:59:31.606Z,60.23
2023-05-19T18:01:58.696Z,60.40
2023-05-19T18:04:25.900Z,61.47
2023-05-19T18:06:53.155Z,61.97
2023-05-19T18:09:22.760Z,61.92
2023-05-19T18:11:49.707Z,62.38
2023-05-19T18:14:16.553Z,62.97
2023-05-19T18:16:43.492Z,63.88
2023-05-19T18:19:10.920Z,67.76
2023-05-19T18:21:37.656Z,68.73
2023-05-19T18:24:04.886Z,69.17
2023-05-19T18:26:32.607Z,69.52
2023-05-19T18:29:02.282Z,70.94
2023-05-19T18:31:29.060Z,73.36
2023-05-19T18:33:55.787Z,76.04
2023-05-19T18:36:23.045Z,74.16
2023-05-19T18:38:49.790Z,77.58
2023-05-19T18:41:16.429Z,73.96
2023-05-19T18:43:43.313Z,72.61
2023-05-19T18:46:12.946Z,71.22
2023-05-19T18:48:40.121Z,78.66
2023-05-19T18:51:07.478Z,82.06
2023-05-19T18:53:34.662Z,83.65
2023-05-19T18:56:05.161Z,82.54
2023-05-19T18:58:32.201Z,80.40
2023-05-19T19:00:59.096Z,83.56
2023-05-19T19:03:26.241Z,85.48
2023-05-19T19:05:54.791Z,86.40
2023-05-19T19:08:21.823Z,86.13
2023-05-19T19:10:49.997Z,87.14
2023-05-19T19:13:17.562Z,81.57
2023-05-19T19:15:44.812Z,75.42
2023-05-19T19:18:11.782Z,74.63
2023-05-19T19:20:38.441Z,72.30
2023-05-19T19:23:06.208Z,70.22
2023-05-19T19:25:33.245Z,70.80
2023-05-19T19:28:00.904Z,73.93
2023-05-19T19:30:28.728Z,73.50
2023-05-19T19:32:56.525Z,77.37
2023-05-19T19:35:23.436Z,72.69
2023-05-19T19:37:51.408Z,70.58
2023-05-19T19:40:18.265Z,72.10
2023-05-19T19:42:45.210Z,73.37
2023-05-19T19:45:14.043Z,74.04
2023-05-19T19:47:42.890Z,77.25
2023-05-19T19:50:10.355Z,76.04
2023-05-19T19:52:37.473Z,73.49
2023-05-19T19:55:04.632Z,75.69
2023-05-19T19:57:33.618Z,73.86
2023-05-19T20:00:07.432Z,74.09
2023-05-19T20:02:41.086Z,79.16
2023-05-19T20:05:13.237Z,73.89
2023-05-19T20:07:40.033Z,72.85
2023-05-19T20:10:07.193Z,74.65
2023-05-19T20:12:34.028Z,77.52
2023-05-19T20:15:01.054Z,77.20
2023-05-19T20:17:27.851Z,73.11
2023-05-19T20:19:56.404Z,72.91
2023-05-19T20:22:23.252Z,82.16
2023-05-19T20:24:50.110Z,84.55
2023-05-19T20:27:17.025Z,75.36
2023-05-19T20:29:45.099Z,77.12
2023-05-19T20:32:12.455Z,86.63
2023-05-19T20:34:40.702Z,89.75
2023-05-19T20:37:08.007Z,91.15
2023-05-19T20:39:34.911Z,90.86
2023-05-19T20:42:01.663Z,90.24
2023-05-19T20:44:28.408Z,84.04
2023-05-19T20:46:55.241Z,78.65
2023-05-19T20:49:21.909Z,83.99
2023-05-19T20:51:48.626Z,86.13
2023-05-19T20:54:16.317Z,85.50
2023-05-19T20:56:42.912Z,87.11
2023-05-19T20:59:09.766Z,89.84
2023-05-19T21:01:36.937Z,88.29
2023-05-19T21:04:06.421Z,85.88
2023-05-19T21:06:33.634Z,84.28
2023-05-19T21:09:03.382Z,84.92
2023-05-19T21:11:30.741Z,84.33
2023-05-19T21:13:57.682Z,84.33
2023-05-19T21:16:24.641Z,79.03
2023-05-19T21:18:51.591Z,76.86
2023-05-19T21:21:18.412Z,79.45
2023-05-19T21:23:45.155Z,78.41
2023-05-19T21:26:11.895Z,83.10
2023-05-19T21:28:38.742Z,87.46
2023-05-19T21:31:05.649Z,87.05
2023-05-19T21:33:32.633Z,85.11
2023-05-19T21:35:59.982Z,86.61
2023-05-19T21:38:27.130Z,84.53
2023-05-19T21:40:53.881Z,83.44
2023-05-19T21:43:21.450Z,78.15
2023-05-19T21:45:48.156Z,81.40
2023-05-19T21:48:15.131Z,83.09
2023-05-19T21:50:42.168Z,93.56
2023-05-19T21:53:09.316Z,94.36
2023-05-19T21:55:36.056Z,87.76
2023-05-19T21:58:03.001Z,88.51
2023-05-19T22:00:29.944Z,93.55
2023-05-19T22:02:56.773Z,92.03
2023-05-19T22:05:23.823Z,89.60
2023-05-19T22:07:50.666Z,89.03
2023-05-19T22:10:17.613Z,86.29
2023-05-19T22:12:44.455Z,86.25
2023-05-19T22:15:12.852Z,86.20
2023-05-19T22:17:39.821Z,85.92
2023-05-19T22:20:07.648Z,84.11
2023-05-19T22:22:34.635Z,86.94
2023-05-19T22:25:02.347Z,86.24
2023-05-19T22:27:29.297Z,87.02
2023-05-19T22:29:56.246Z,88.19
2023-05-19T22:32:23.082Z,89.94
2023-05-19T22:34:50.005Z,91.19
2023-05-19T22:37:16.768Z,90.65
2023-05-19T22:39:43.915Z,88.86
2023-05-19T22:42:10.650Z,89.77
2023-05-19T22:44:37.390Z,89.73
2023-05-19T22:47:04.284Z,89.43
2023-05-19T22:49:30.987Z,88.35
2023-05-19T22:51:57.817Z,86.93
2023-05-19T22:54:24.663Z,87.54
2023-05-19T22:56:51.541Z,87.95
2023-05-19T22:59:18.549Z,87.69
2023-05-19T23:01:46.130Z,85.97
2023-05-19T23:04:13.598Z,86.19
2023-05-19T23:06:40.610Z,84.83
2023-05-19T23:09:07.695Z,80.88
2023-05-19T23:11:35.421Z,86.99
2023-05-19T23:14:02.481Z,87.35
2023-05-19T23:16:29.327Z,85.79
2023-05-19T23:18:56.068Z,84.17
2023-05-19T23:21:22.890Z,82.77
2023-05-19T23:23:49.631Z,84.74
2023-05-19T23:26:16.373Z,81.58
2023-05-19T23:28:43.258Z,82.29
2023-05-19T23:31:10.070Z,81.17
2023-05-19T23:33:36.906Z,83.96
2023-05-19T23:36:07.762Z,83.09
2023-05-19T23:38:35.195Z,85.31
2023-05-19T23:41:02.245Z,84.63
2023-05-19T23:43:29.239Z,86.47
2023-05-19T23:45:56.046Z,86.90
2023-05-19T23:48:22.875Z,85.62
2023-05-19T23:50:49.616Z,87.97
2023-05-19T23:53:16.762Z,87.21
2023-05-19T23:55:44.172Z,87.01
2023-05-19T23:58:10.859Z,89.77
